sensor_id;sensor_type;location;lat;lon;timestamp;P1;durP1;ratioP1;P2;durP2;ratioP2
38252;SDS011;24785;52.372;20.672;2023-10-09T00:09:24;7.13;;;3.13;;
38252;SDS011;24785;52.372;20.672;2023-10-09T00:19:24;7.32;;;2.10;;
38252;SDS011;24785;52.372;20.672;2023-10-09T00:29:33;7.30;;;2.85;;
38252;SDS011;24785;52.372;20.672;2023-10-09T00:39:37;11.23;;;2.70;;
38252;SDS011;24785;52.372;20.672;2023-10-09T00:49:40;15.18;;;3.33;;
38252;SDS011;24785;52.372;20.672;2023-10-09T00:59:44;6.63;;;2.08;;
38252;SDS011;24785;52.372;20.672;2023-10-09T01:09:47;7.90;;;2.53;;
38252;SDS011;24785;52.372;20.672;2023-10-09T01:19:51;7.13;;;2.50;;
38252;SDS011;24785;52.372;20.672;2023-10-09T01:29:56;6.07;;;2.15;;
38252;SDS011;24785;52.372;20.672;2023-10-09T01:40:00;4.20;;;1.80;;
38252;SDS011;24785;52.372;20.672;2023-10-09T01:50:20;8.15;;;2.22;;
38252;SDS011;24785;52.372;20.672;2023-10-09T02:00:35;5.30;;;2.15;;
38252;SDS011;24785;52.372;20.672;2023-10-09T02:10:43;5.65;;;2.17;;
38252;SDS011;24785;52.372;20.672;2023-10-09T02:31:02;6.22;;;2.20;;
38252;SDS011;24785;52.372;20.672;2023-10-09T02:41:10;8.32;;;2.63;;
38252;SDS011;24785;52.372;20.672;2023-10-09T02:51:14;5.47;;;2.58;;
38252;SDS011;24785;52.372;20.672;2023-10-09T03:01:33;8.82;;;3.15;;
38252;SDS011;24785;52.372;20.672;2023-10-09T03:11:35;9.25;;;3.33;;
38252;SDS011;24785;52.372;20.672;2023-10-09T03:21:37;8.68;;;3.03;;
38252;SDS011;24785;52.372;20.672;2023-10-09T03:31:37;8.20;;;3.08;;
38252;SDS011;24785;52.372;20.672;2023-10-09T03:41:38;10.02;;;3.63;;
38252;SDS011;24785;52.372;20.672;2023-10-09T03:51:42;10.20;;;3.70;;
38252;SDS011;24785;52.372;20.672;2023-10-09T04:01:43;9.50;;;3.38;;
38252;SDS011;24785;52.372;20.672;2023-10-09T04:11:48;10.93;;;4.23;;
38252;SDS011;24785;52.372;20.672;2023-10-09T04:21:57;10.55;;;3.60;;
38252;SDS011;24785;52.372;20.672;2023-10-09T04:31:59;9.50;;;3.50;;
38252;SDS011;24785;52.372;20.672;2023-10-09T04:42:02;6.82;;;3.15;;
38252;SDS011;24785;52.372;20.672;2023-10-09T04:52:21;9.38;;;3.50;;
38252;SDS011;24785;52.372;20.672;2023-10-09T05:02:31;13.35;;;4.07;;
38252;SDS011;24785;52.372;20.672;2023-10-09T05:12:36;12.93;;;3.90;;
38252;SDS011;24785;52.372;20.672;2023-10-09T05:22:46;10.95;;;3.55;;
38252;SDS011;24785;52.372;20.672;2023-10-09T05:33:00;15.85;;;5.93;;
38252;SDS011;24785;52.372;20.672;2023-10-09T05:43:21;12.18;;;4.85;;
38252;SDS011;24785;52.372;20.672;2023-10-09T05:53:40;11.32;;;3.58;;
38252;SDS011;24785;52.372;20.672;2023-10-09T06:03:44;17.13;;;4.70;;
38252;SDS011;24785;52.372;20.672;2023-10-09T06:14:05;14.70;;;5.00;;
38252;SDS011;24785;52.372;20.672;2023-10-09T06:24:08;14.68;;;5.28;;
38252;SDS011;24785;52.372;20.672;2023-10-09T06:34:15;14.35;;;5.07;;
38252;SDS011;24785;52.372;20.672;2023-10-09T06:44:16;12.23;;;4.17;;
38252;SDS011;24785;52.372;20.672;2023-10-09T06:54:36;13.65;;;4.78;;
38252;SDS011;24785;52.372;20.672;2023-10-09T07:04:38;9.07;;;3.40;;
38252;SDS011;24785;52.372;20.672;2023-10-09T07:14:39;7.37;;;3.43;;
38252;SDS011;24785;52.372;20.672;2023-10-09T07:24:39;8.23;;;3.57;;
38252;SDS011;24785;52.372;20.672;2023-10-09T07:34:50;10.95;;;2.85;;
38252;SDS011;24785;52.372;20.672;2023-10-09T07:44:56;10.35;;;4.43;;
38252;SDS011;24785;52.372;20.672;2023-10-09T07:54:58;6.43;;;2.95;;
38252;SDS011;24785;52.372;20.672;2023-10-09T08:05:02;7.65;;;2.70;;
38252;SDS011;24785;52.372;20.672;2023-10-09T08:15:23;5.78;;;2.60;;
38252;SDS011;24785;52.372;20.672;2023-10-09T08:25:28;5.47;;;2.42;;
38252;SDS011;24785;52.372;20.672;2023-10-09T08:35:33;6.90;;;2.45;;
38252;SDS011;24785;52.372;20.672;2023-10-09T08:45:37;5.37;;;1.90;;
38252;SDS011;24785;52.372;20.672;2023-10-09T08:55:40;12.30;;;3.30;;
38252;SDS011;24785;52.372;20.672;2023-10-09T09:05:40;5.43;;;1.60;;
38252;SDS011;24785;52.372;20.672;2023-10-09T09:15:41;7.35;;;1.50;;
38252;SDS011;24785;52.372;20.672;2023-10-09T09:25:47;5.00;;;1.40;;
38252;SDS011;24785;52.372;20.672;2023-10-09T09:36:00;4.20;;;1.40;;
38252;SDS011;24785;52.372;20.672;2023-10-09T09:46:04;4.10;;;1.40;;
38252;SDS011;24785;52.372;20.672;2023-10-09T09:56:08;4.28;;;1.50;;
38252;SDS011;24785;52.372;20.672;2023-10-09T10:06:14;3.80;;;1.45;;
38252;SDS011;24785;52.372;20.672;2023-10-09T10:16:15;1.83;;;0.98;;
38252;SDS011;24785;52.372;20.672;2023-10-09T10:26:22;4.72;;;1.75;;
38252;SDS011;24785;52.372;20.672;2023-10-09T10:36:26;3.47;;;1.40;;
38252;SDS011;24785;52.372;20.672;2023-10-09T10:46:27;3.83;;;1.85;;
38252;SDS011;24785;52.372;20.672;2023-10-09T10:56:37;6.00;;;2.00;;
38252;SDS011;24785;52.372;20.672;2023-10-09T11:06:38;9.15;;;3.10;;
38252;SDS011;24785;52.372;20.672;2023-10-09T11:16:39;5.78;;;2.05;;
38252;SDS011;24785;52.372;20.672;2023-10-09T11:26:42;6.35;;;2.90;;
38252;SDS011;24785;52.372;20.672;2023-10-09T11:36:43;12.45;;;4.40;;
38252;SDS011;24785;52.372;20.672;2023-10-09T11:46:59;5.55;;;2.70;;
38252;SDS011;24785;52.372;20.672;2023-10-09T11:57:19;45.70;;;16.20;;
38252;SDS011;24785;52.372;20.672;2023-10-09T12:07:29;10.32;;;3.40;;
38252;SDS011;24785;52.372;20.672;2023-10-09T12:17:30;11.93;;;5.18;;
38252;SDS011;24785;52.372;20.672;2023-10-09T12:27:30;41.63;;;20.77;;
38252;SDS011;24785;52.372;20.672;2023-10-09T12:37:31;7.47;;;3.30;;
38252;SDS011;24785;52.372;20.672;2023-10-09T12:47:31;15.77;;;8.90;;
38252;SDS011;24785;52.372;20.672;2023-10-09T12:57:33;23.88;;;9.85;;
38252;SDS011;24785;52.372;20.672;2023-10-09T13:07:34;10.13;;;3.92;;
38252;SDS011;24785;52.372;20.672;2023-10-09T13:17:37;19.17;;;9.43;;
38252;SDS011;24785;52.372;20.672;2023-10-09T13:27:38;8.77;;;3.63;;
38252;SDS011;24785;52.372;20.672;2023-10-09T13:37:39;71.20;;;31.50;;
38252;SDS011;24785;52.372;20.672;2023-10-09T13:47:39;23.13;;;9.80;;
38252;SDS011;24785;52.372;20.672;2023-10-09T13:57:40;8.35;;;4.15;;
38252;SDS011;24785;52.372;20.672;2023-10-09T14:07:43;18.73;;;8.85;;
38252;SDS011;24785;52.372;20.672;2023-10-09T14:17:44;14.02;;;5.90;;
38252;SDS011;24785;52.372;20.672;2023-10-09T14:27:47;12.38;;;6.13;;
38252;SDS011;24785;52.372;20.672;2023-10-09T14:37:48;19.45;;;9.15;;
38252;SDS011;24785;52.372;20.672;2023-10-09T14:47:49;62.47;;;29.10;;
38252;SDS011;24785;52.372;20.672;2023-10-09T14:57:52;154.90;;;56.95;;
38252;SDS011;24785;52.372;20.672;2023-10-09T15:07:52;96.13;;;44.38;;
38252;SDS011;24785;52.372;20.672;2023-10-09T15:17:53;85.93;;;28.83;;
38252;SDS011;24785;52.372;20.672;2023-10-09T15:27:54;111.63;;;42.73;;
38252;SDS011;24785;52.372;20.672;2023-10-09T15:37:54;51.20;;;15.70;;
38252;SDS011;24785;52.372;20.672;2023-10-09T15:47:55;22.20;;;7.60;;
38252;SDS011;24785;52.372;20.672;2023-10-09T15:57:56;23.73;;;9.75;;
38252;SDS011;24785;52.372;20.672;2023-10-09T16:07:57;16.77;;;6.82;;
38252;SDS011;24785;52.372;20.672;2023-10-09T16:17:58;18.65;;;5.18;;
38252;SDS011;24785;52.372;20.672;2023-10-09T16:28:00;69.57;;;23.05;;
38252;SDS011;24785;52.372;20.672;2023-10-09T16:38:03;16.45;;;6.68;;
38252;SDS011;24785;52.372;20.672;2023-10-09T16:48:05;9.93;;;3.88;;
38252;SDS011;24785;52.372;20.672;2023-10-09T16:58:08;18.05;;;6.60;;
38252;SDS011;24785;52.372;20.672;2023-10-09T17:08:10;22.57;;;9.03;;
38252;SDS011;24785;52.372;20.672;2023-10-09T17:18:11;26.70;;;9.95;;
38252;SDS011;24785;52.372;20.672;2023-10-09T17:28:13;19.87;;;7.90;;
38252;SDS011;24785;52.372;20.672;2023-10-09T17:38:20;23.60;;;9.98;;
38252;SDS011;24785;52.372;20.672;2023-10-09T17:48:21;19.98;;;8.65;;
38252;SDS011;24785;52.372;20.672;2023-10-09T17:58:22;41.88;;;14.02;;
38252;SDS011;24785;52.372;20.672;2023-10-09T18:08:26;43.92;;;15.38;;
38252;SDS011;24785;52.372;20.672;2023-10-09T18:18:27;28.83;;;11.10;;
38252;SDS011;24785;52.372;20.672;2023-10-09T18:28:28;54.17;;;22.83;;
38252;SDS011;24785;52.372;20.672;2023-10-09T18:38:28;54.65;;;20.55;;
38252;SDS011;24785;52.372;20.672;2023-10-09T18:48:29;50.30;;;19.25;;
38252;SDS011;24785;52.372;20.672;2023-10-09T18:58:30;25.63;;;10.80;;
38252;SDS011;24785;52.372;20.672;2023-10-09T19:08:30;21.85;;;10.20;;
38252;SDS011;24785;52.372;20.672;2023-10-09T19:28:35;44.40;;;18.10;;
38252;SDS011;24785;52.372;20.672;2023-10-09T19:38:38;68.07;;;22.13;;
38252;SDS011;24785;52.372;20.672;2023-10-09T19:48:41;51.50;;;17.75;;
38252;SDS011;24785;52.372;20.672;2023-10-09T19:58:41;45.53;;;16.85;;
38252;SDS011;24785;52.372;20.672;2023-10-09T20:08:42;33.22;;;13.18;;
38252;SDS011;24785;52.372;20.672;2023-10-09T20:18:43;25.70;;;11.03;;
38252;SDS011;24785;52.372;20.672;2023-10-09T20:28:44;36.70;;;14.38;;
38252;SDS011;24785;52.372;20.672;2023-10-09T20:38:46;29.73;;;12.80;;
38252;SDS011;24785;52.372;20.672;2023-10-09T20:48:48;20.17;;;9.30;;
38252;SDS011;24785;52.372;20.672;2023-10-09T20:58:49;30.40;;;10.93;;
38252;SDS011;24785;52.372;20.672;2023-10-09T21:08:50;20.10;;;8.97;;
38252;SDS011;24785;52.372;20.672;2023-10-09T21:18:51;18.25;;;7.40;;
38252;SDS011;24785;52.372;20.672;2023-10-09T21:28:55;20.85;;;7.93;;
38252;SDS011;24785;52.372;20.672;2023-10-09T21:38:55;16.00;;;8.52;;
38252;SDS011;24785;52.372;20.672;2023-10-09T21:48:56;19.48;;;7.97;;
38252;SDS011;24785;52.372;20.672;2023-10-09T21:58:57;24.60;;;10.60;;
38252;SDS011;24785;52.372;20.672;2023-10-09T22:08:58;19.50;;;9.43;;
38252;SDS011;24785;52.372;20.672;2023-10-09T22:18:59;24.33;;;9.60;;
38252;SDS011;24785;52.372;20.672;2023-10-09T22:28:59;20.42;;;9.63;;
38252;SDS011;24785;52.372;20.672;2023-10-09T22:39:01;20.53;;;8.70;;
38252;SDS011;24785;52.372;20.672;2023-10-09T22:49:05;26.52;;;10.00;;
38252;SDS011;24785;52.372;20.672;2023-10-09T22:59:14;18.65;;;8.98;;
38252;SDS011;24785;52.372;20.672;2023-10-09T23:09:25;22.42;;;9.15;;
38252;SDS011;24785;52.372;20.672;2023-10-09T23:19:33;20.23;;;9.50;;
38252;SDS011;24785;52.372;20.672;2023-10-09T23:29:40;23.20;;;10.90;;
38252;SDS011;24785;52.372;20.672;2023-10-09T23:39:52;20.30;;;10.03;;
38252;SDS011;24785;52.372;20.672;2023-10-09T23:49:53;20.80;;;9.87;;
38252;SDS011;24785;52.372;20.672;2023-10-09T23:59:56;25.50;;;10.30;;
